createdAt,value
2019-02-12T00:01:35.634Z,9.70
2019-02-12T00:04:02.239Z,3.07
2019-02-12T00:06:28.823Z,9.57
2019-02-12T00:08:56.548Z,4.20
2019-02-12T00:11:25.075Z,5.93
2019-02-12T00:13:51.587Z,11.23
2019-02-12T00:16:18.206Z,1.90
2019-02-12T00:18:45.983Z,3.77
2019-02-12T00:21:13.098Z,3.23
2019-02-12T00:23:39.861Z,0.83
2019-02-12T00:26:06.410Z,6.67
2019-02-12T00:28:33.152Z,3.63
2019-02-12T00:31:02.373Z,7.27
2019-02-12T00:33:29.325Z,8.53
2019-02-12T00:35:56.250Z,6.17
2019-02-12T00:38:22.985Z,4.07
2019-02-12T00:40:49.934Z,6.30
2019-02-12T00:43:16.868Z,4.80
2019-02-12T00:45:43.447Z,5.00
2019-02-12T00:48:10.072Z,5.53
2019-02-12T00:50:36.948Z,5.43
2019-02-12T00:53:03.549Z,6.67
2019-02-12T00:55:30.347Z,5.70
2019-02-12T00:57:56.975Z,5.87
2019-02-12T01:00:24.879Z,2.43
2019-02-12T01:02:52.197Z,8.83
2019-02-12T01:05:19.885Z,3.57
2019-02-12T01:07:46.828Z,3.77
2019-02-12T01:10:13.570Z,5.20
2019-02-12T01:12:40.125Z,8.70
2019-02-12T01:15:08.659Z,4.20
2019-02-12T01:17:35.303Z,6.97
2019-02-12T01:20:02.040Z,8.47
2019-02-12T01:22:28.996Z,2.37
2019-02-12T01:24:55.932Z,8.27
2019-02-12T01:27:22.481Z,6.57
2019-02-12T01:29:49.145Z,4.70
2019-02-12T01:32:15.736Z,2.93
2019-02-12T01:34:42.383Z,4.23
2019-02-12T01:37:09.081Z,5.07
2019-02-12T01:39:35.725Z,6.00
2019-02-12T01:42:04.114Z,3.23
2019-02-12T01:44:30.956Z,6.50
2019-02-12T01:46:57.641Z,2.33
2019-02-12T01:49:24.285Z,8.57
2019-02-12T01:51:50.832Z,2.73
2019-02-12T01:54:19.781Z,6.00
2019-02-12T01:56:46.618Z,5.60
2019-02-12T01:59:14.196Z,5.93
2019-02-12T02:01:40.985Z,2.93
2019-02-12T02:04:07.821Z,6.53
2019-02-12T02:06:34.874Z,3.70
2019-02-12T02:09:01.810Z,5.20
2019-02-12T02:11:28.399Z,4.10
2019-02-12T02:13:55.403Z,7.60
2019-02-12T02:16:22.087Z,4.53
2019-02-12T02:18:50.080Z,8.53
2019-02-12T02:21:16.926Z,4.50
2019-02-12T02:23:45.767Z,5.30
2019-02-12T02:26:12.405Z,7.23
2019-02-12T02:28:38.967Z,3.07
2019-02-12T02:31:06.224Z,4.23
2019-02-12T02:33:32.839Z,4.83
2019-02-12T02:35:59.470Z,7.03
2019-02-12T02:38:26.373Z,3.43
2019-02-12T02:40:53.151Z,1.13
2019-02-12T02:43:19.734Z,6.77
2019-02-12T02:45:46.351Z,3.23
2019-02-12T02:48:13.065Z,5.67
2019-02-12T02:50:39.734Z,3.77
2019-02-12T02:53:06.787Z,4.03
2019-02-12T02:55:33.407Z,5.93
2019-02-12T02:57:59.932Z,4.37
2019-02-12T03:00:26.431Z,4.27
2019-02-12T03:02:53.022Z,6.40
2019-02-12T03:05:19.549Z,5.17
2019-02-12T03:07:46.082Z,5.13
2019-02-12T03:10:12.674Z,5.27
2019-02-12T03:12:39.170Z,4.23
2019-02-12T03:15:06.602Z,5.23
2019-02-12T03:17:38.995Z,5.23
2019-02-12T03:20:07.376Z,1.93
2019-02-12T03:22:33.876Z,4.20
2019-02-12T03:25:00.454Z,5.97
2019-02-12T03:27:27.213Z,7.73
2019-02-12T03:29:53.686Z,4.63
2019-02-12T03:32:20.278Z,5.33
2019-02-12T03:34:46.766Z,6.67
2019-02-12T03:37:13.273Z,5.17
2019-02-12T03:39:41.058Z,7.27
2019-02-12T03:42:07.901Z,4.63
2019-02-12T03:44:35.268Z,5.10
2019-02-12T03:47:02.188Z,3.83
2019-02-12T03:49:29.101Z,5.00
2019-02-12T03:51:56.380Z,6.97
2019-02-12T03:54:23.402Z,3.83
2019-02-12T03:56:50.361Z,5.90
2019-02-12T03:59:17.339Z,6.73
2019-02-12T04:01:44.387Z,5.80
2019-02-12T04:04:11.691Z,8.63
2019-02-12T04:06:38.344Z,4.57
2019-02-12T04:09:05.460Z,9.47
2019-02-12T04:11:32.022Z,5.23
2019-02-12T04:13:58.975Z,3.33
2019-02-12T04:16:25.612Z,5.40
2019-02-12T04:18:52.263Z,7.77
2019-02-12T04:21:18.906Z,5.40
2019-02-12T04:23:45.680Z,7.77
2019-02-12T04:26:12.272Z,5.33
2019-02-12T04:28:38.910Z,4.90
2019-02-12T04:31:05.489Z,4.40
2019-02-12T04:33:32.078Z,6.20
2019-02-12T04:35:58.707Z,6.80
2019-02-12T04:38:25.211Z,6.87
2019-02-12T04:40:51.746Z,5.77
2019-02-12T04:43:18.703Z,7.47
2019-02-12T04:45:48.188Z,6.67
2019-02-12T04:48:14.688Z,7.40
2019-02-12T04:50:41.215Z,4.73
2019-02-12T04:53:07.727Z,6.23
2019-02-12T04:55:34.269Z,5.27
2019-02-12T04:58:00.873Z,3.63
2019-02-12T05:00:27.742Z,10.27
2019-02-12T05:02:54.293Z,6.37
2019-02-12T05:05:20.797Z,3.10
2019-02-12T05:07:47.407Z,5.53
2019-02-12T05:10:15.156Z,5.97
2019-02-12T05:12:41.665Z,6.83
2019-02-12T05:15:08.463Z,4.93
2019-02-12T05:17:36.080Z,3.03
2019-02-12T05:20:04.110Z,8.37
2019-02-12T05:22:30.581Z,4.77
2019-02-12T05:24:57.496Z,4.43
2019-02-12T05:27:24.012Z,7.40
2019-02-12T05:29:50.537Z,6.80
2019-02-12T05:32:17.210Z,8.10
2019-02-12T05:34:44.832Z,5.47
2019-02-12T05:37:11.313Z,7.73
2019-02-12T05:39:38.107Z,7.73
2019-02-12T05:42:04.603Z,3.97
2019-02-12T05:44:32.075Z,7.17
2019-02-12T05:46:58.594Z,6.27
2019-02-12T05:49:25.177Z,9.20
2019-02-12T05:51:51.699Z,5.50
2019-02-12T05:54:18.189Z,10.00
2019-02-12T05:56:49.468Z,7.50
2019-02-12T05:59:15.999Z,2.93
2019-02-12T06:01:44.650Z,12.13
2019-02-12T06:04:11.239Z,7.33
2019-02-12T06:06:38.765Z,8.40
2019-02-12T06:09:05.637Z,9.87
2019-02-12T06:11:32.149Z,4.73
2019-02-12T06:13:58.910Z,6.37
2019-02-12T06:16:25.423Z,6.80
2019-02-12T06:18:51.957Z,8.47
2019-02-12T06:21:18.653Z,7.50
2019-02-12T06:23:45.550Z,6.30
2019-02-12T06:26:12.207Z,13.83
2019-02-12T06:28:38.740Z,10.23
2019-02-12T06:31:05.303Z,9.33
2019-02-12T06:33:32.231Z,13.20
2019-02-12T06:35:58.798Z,11.57
2019-02-12T06:38:25.409Z,7.43
2019-02-12T06:40:52.051Z,5.97
2019-02-12T06:43:18.732Z,6.53
2019-02-12T06:45:45.423Z,9.33
2019-02-12T06:48:12.056Z,11.27
2019-02-12T06:50:38.899Z,9.23
2019-02-12T06:53:12.228Z,19.03
2019-02-12T06:55:34.439Z,4.43
2019-02-12T06:58:00.984Z,5.90
2019-02-12T07:00:27.554Z,7.30
2019-02-12T07:03:16.921Z,6.60
2019-02-12T07:06:15.321Z,9.73
2019-02-12T07:09:05.772Z,7.77
2019-02-12T07:12:03.988Z,4.73
2019-02-12T07:14:53.247Z,7.90
2019-02-12T07:17:45.409Z,6.90
2019-02-12T07:20:52.582Z,4.77
2019-02-12T07:23:57.093Z,6.27
2019-02-12T07:26:35.137Z,9.83
2019-02-12T07:29:38.120Z,6.07
2019-02-12T07:32:37.534Z,7.30
2019-02-12T07:35:26.722Z,9.00
2019-02-12T07:38:24.441Z,8.00
2019-02-12T07:41:22.802Z,6.90
2019-02-12T07:44:06.794Z,4.87
2019-02-12T07:47:10.390Z,7.40
2019-02-12T07:49:48.902Z,6.07
2019-02-12T07:52:52.100Z,5.50
2019-02-12T07:55:54.710Z,6.23
2019-02-12T07:58:55.372Z,4.70
2019-02-12T08:02:19.856Z,5.27
2019-02-12T08:05:23.064Z,2.43
2019-02-12T08:08:30.121Z,3.13
2019-02-12T08:11:33.689Z,6.73
2019-02-12T08:14:23.079Z,4.00
2019-02-12T08:17:17.150Z,2.50
2019-02-12T08:20:02.985Z,3.10
2019-02-12T08:22:56.663Z,6.07
2019-02-12T08:26:05.360Z,1.70
2019-02-12T08:29:13.113Z,3.03
2019-02-12T08:32:29.927Z,5.43
2019-02-12T08:36:00.096Z,4.63
2019-02-12T08:39:04.658Z,4.30
2019-02-12T08:42:05.317Z,5.43
2019-02-12T08:45:01.551Z,4.57
2019-02-12T08:48:17.921Z,2.17
2019-02-12T08:51:25.566Z,3.93
2019-02-12T08:54:31.821Z,2.27
2019-02-12T08:57:22.255Z,3.67
2019-02-12T09:00:12.050Z,2.73
2019-02-12T09:03:27.021Z,3.97
2019-02-12T09:06:19.282Z,1.93
2019-02-12T09:09:30.820Z,2.80
2019-02-12T09:12:28.194Z,2.43
2019-02-12T09:15:43.345Z,2.67
2019-02-12T09:18:39.642Z,5.33
2019-02-12T09:21:46.749Z,1.47
2019-02-12T09:24:45.539Z,3.27
2019-02-12T09:27:25.133Z,4.63
2019-02-12T09:30:32.780Z,6.83
2019-02-12T09:33:19.287Z,1.73
2019-02-12T09:36:21.556Z,3.30
2019-02-12T09:39:16.046Z,2.20
2019-02-12T09:41:53.182Z,2.97
2019-02-12T09:44:46.925Z,4.70
2019-02-12T09:48:12.539Z,4.17
2019-02-12T09:51:17.590Z,5.70
2019-02-12T09:54:24.216Z,4.83
2019-02-12T09:57:15.152Z,8.37
2019-02-12T10:00:25.704Z,3.20
2019-02-12T10:03:19.501Z,5.33
2019-02-12T10:06:34.199Z,8.61
2019-02-12T10:09:46.493Z,4.70
2019-02-12T10:12:53.959Z,8.07
2019-02-12T10:16:11.569Z,4.40
2019-02-12T10:19:14.770Z,3.67
2019-02-12T10:22:17.706Z,7.10
2019-02-12T10:25:22.281Z,3.93
2019-02-12T10:31:40.044Z,5.10
2019-02-12T10:34:06.860Z,3.57
2019-02-12T10:36:33.611Z,3.97
2019-02-12T10:39:01.750Z,3.17
2019-02-12T10:41:32.012Z,6.07
2019-02-12T10:44:00.471Z,5.77
2019-02-12T10:46:27.323Z,3.90
2019-02-12T10:48:54.181Z,2.30
2019-02-12T10:51:21.062Z,3.03
2019-02-12T10:53:47.731Z,3.27
2019-02-12T10:56:15.206Z,3.47
2019-02-12T10:58:43.106Z,1.67
2019-02-12T11:01:09.735Z,4.57
2019-02-12T11:03:36.515Z,1.87
2019-02-12T11:06:03.409Z,2.40
2019-02-12T11:08:30.197Z,3.10
2019-02-12T11:10:56.955Z,3.70
2019-02-12T11:13:23.577Z,5.57
2019-02-12T11:15:50.327Z,2.93
2019-02-12T11:18:17.035Z,2.20
2019-02-12T11:20:43.745Z,6.17
2019-02-12T11:23:11.027Z,5.70
2019-02-12T11:25:37.886Z,3.60
2019-02-12T11:28:04.701Z,7.23
2019-02-12T11:30:31.295Z,4.37
2019-02-12T11:32:58.037Z,10.27
2019-02-12T11:35:25.021Z,5.13
2019-02-12T11:37:52.138Z,3.93
2019-02-12T11:40:19.092Z,5.17
2019-02-12T11:42:46.125Z,7.30
2019-02-12T11:45:13.067Z,9.03
2019-02-12T11:47:40.255Z,6.70
2019-02-12T11:50:07.603Z,5.17
2019-02-12T11:52:34.318Z,3.13
2019-02-12T11:55:01.267Z,4.93
2019-02-12T11:57:28.133Z,2.20
2019-02-12T11:59:54.942Z,4.20
2019-02-12T12:02:25.499Z,9.93
2019-02-12T12:04:52.151Z,6.33
2019-02-12T12:07:18.862Z,4.87
2019-02-12T12:09:45.714Z,4.60
2019-02-12T12:12:12.401Z,2.33
2019-02-12T12:14:39.395Z,3.03
2019-02-12T12:17:06.903Z,6.63
2019-02-12T12:19:33.558Z,6.80
2019-02-12T12:22:00.235Z,4.47
2019-02-12T12:24:27.316Z,5.20
2019-02-12T12:26:54.197Z,2.50
2019-02-12T12:29:20.781Z,5.53
2019-02-12T12:31:47.696Z,2.90
2019-02-12T12:34:15.101Z,4.47
2019-02-12T12:36:41.835Z,3.70
2019-02-12T12:39:08.729Z,5.97
2019-02-12T12:41:35.565Z,6.50
2019-02-12T12:44:02.573Z,5.70
2019-02-12T12:46:29.479Z,9.87
2019-02-12T12:48:56.785Z,4.33
2019-02-12T12:51:23.596Z,3.60
2019-02-12T12:53:51.278Z,3.23
2019-02-12T12:56:18.010Z,3.23
2019-02-12T12:58:44.794Z,2.10
2019-02-12T13:01:11.861Z,6.73
2019-02-12T13:03:38.726Z,5.23
2019-02-12T13:06:05.311Z,4.97
2019-02-12T13:08:32.227Z,5.57
2019-02-12T13:10:59.017Z,9.43
2019-02-12T13:13:31.685Z,5.50
2019-02-12T13:15:58.662Z,4.30
2019-02-12T13:18:26.159Z,4.83
2019-02-12T13:20:53.130Z,4.33
2019-02-12T13:23:20.031Z,6.30
2019-02-12T13:25:47.466Z,2.57
2019-02-12T13:28:14.285Z,5.80
2019-02-12T13:30:40.939Z,5.40
2019-02-12T13:33:07.872Z,5.17
2019-02-12T13:35:35.741Z,6.17
2019-02-12T13:38:02.733Z,4.40
2019-02-12T13:40:29.498Z,2.50
2019-02-12T13:42:56.253Z,4.50
2019-02-12T13:45:22.973Z,3.90
2019-02-12T13:47:50.111Z,5.83
2019-02-12T13:50:18.595Z,6.70
2019-02-12T13:52:45.397Z,5.33
2019-02-12T13:55:17.278Z,3.17
2019-02-12T13:57:41.335Z,3.30
2019-02-12T14:00:09.847Z,8.20
2019-02-12T14:02:36.656Z,5.90
2019-02-12T14:05:04.559Z,4.53
2019-02-12T14:07:31.713Z,4.70
2019-02-12T14:09:59.129Z,2.97
2019-02-12T14:12:26.140Z,3.43
2019-02-12T14:14:53.032Z,11.97
2019-02-12T14:17:20.422Z,13.73
2019-02-12T14:19:47.575Z,6.90
2019-02-12T14:22:14.677Z,3.77
2019-02-12T14:24:42.014Z,4.13
2019-02-12T14:27:09.607Z,2.90
2019-02-12T14:29:36.814Z,3.60
2019-02-12T14:32:04.002Z,4.23
2019-02-12T14:34:31.152Z,7.63
2019-02-12T14:36:57.721Z,5.00
2019-02-12T14:39:24.537Z,4.83
2019-02-12T14:41:51.538Z,3.13
2019-02-12T14:44:18.370Z,3.73
2019-02-12T14:46:45.437Z,6.97
2019-02-12T14:49:12.140Z,5.13
2019-02-12T14:51:38.753Z,4.40
2019-02-12T14:54:07.229Z,6.00
2019-02-12T14:56:34.275Z,5.40
2019-02-12T14:59:00.973Z,4.60
2019-02-12T15:01:27.900Z,5.10
2019-02-12T15:03:54.823Z,5.93
2019-02-12T15:06:21.976Z,3.47
2019-02-12T15:08:48.898Z,6.63
2019-02-12T15:11:15.538Z,4.27
2019-02-12T15:13:42.404Z,5.40
2019-02-12T15:16:09.100Z,13.53
2019-02-12T15:18:35.741Z,10.23
2019-02-12T15:21:02.923Z,6.17
2019-02-12T15:23:29.618Z,6.33
2019-02-12T15:25:56.267Z,8.93
2019-02-12T15:28:23.405Z,4.13
2019-02-12T15:30:50.208Z,6.97
2019-02-12T15:33:17.394Z,7.00
2019-02-12T15:35:44.579Z,10.73
2019-02-12T15:38:11.294Z,7.43
2019-02-12T15:40:37.859Z,3.20
2019-02-12T15:43:04.861Z,6.13
2019-02-12T15:45:31.638Z,6.67
2019-02-12T15:47:58.741Z,5.87
2019-02-12T15:50:28.185Z,4.40
2019-02-12T15:52:55.331Z,10.03
2019-02-12T15:55:22.748Z,5.87
2019-02-12T15:57:52.081Z,7.90
2019-02-12T16:00:20.851Z,5.80
2019-02-12T16:02:47.770Z,6.27
2019-02-12T16:05:14.638Z,4.27
2019-02-12T16:07:47.438Z,8.30
2019-02-12T16:10:19.407Z,10.33
2019-02-12T16:12:48.646Z,3.43
2019-02-12T16:15:15.761Z,6.47
2019-02-12T16:17:45.709Z,5.60
2019-02-12T16:20:17.221Z,1.83
2019-02-12T16:22:45.176Z,6.90
2019-02-12T16:25:19.137Z,11.67
2019-02-12T16:27:47.234Z,6.27
2019-02-12T16:30:16.424Z,9.00
2019-02-12T16:32:48.614Z,5.87
2019-02-12T16:35:16.938Z,5.70
2019-02-12T16:37:46.291Z,6.53
2019-02-12T16:40:15.866Z,7.17
2019-02-12T16:42:43.651Z,9.23
2019-02-12T16:45:14.362Z,6.37
2019-02-12T16:47:41.110Z,9.27
2019-02-12T16:50:13.989Z,6.40
2019-02-12T16:52:44.327Z,5.67
2019-02-12T16:55:12.647Z,6.67
2019-02-12T16:57:40.412Z,7.70
2019-02-12T17:00:15.499Z,6.27
2019-02-12T17:02:43.075Z,8.53
2019-02-12T17:05:13.002Z,7.07
2019-02-12T17:07:39.598Z,9.00
2019-02-12T17:10:07.189Z,10.23
2019-02-12T17:12:34.188Z,6.97
2019-02-12T17:15:01.582Z,7.40
2019-02-12T17:17:28.368Z,4.43
2019-02-12T17:19:56.149Z,6.10
2019-02-12T17:22:22.989Z,7.93
2019-02-12T17:24:49.720Z,10.60
2019-02-12T17:27:16.805Z,10.13
2019-02-12T17:29:43.685Z,6.87
2019-02-12T17:32:11.025Z,7.00
2019-02-12T17:34:37.984Z,5.53
2019-02-12T17:37:04.824Z,7.57
2019-02-12T17:39:31.771Z,8.80
2019-02-12T17:41:59.685Z,9.67
2019-02-12T17:44:26.740Z,9.40
2019-02-12T17:46:53.589Z,7.97
2019-02-12T17:49:20.886Z,13.43
2019-02-12T17:51:47.647Z,7.60
2019-02-12T17:54:14.622Z,9.27
2019-02-12T17:56:41.784Z,5.50
2019-02-12T17:59:08.539Z,7.93
2019-02-12T18:01:35.227Z,6.73
2019-02-12T18:04:02.663Z,6.73
2019-02-12T18:06:30.272Z,4.73
2019-02-12T18:08:59.428Z,9.27
2019-02-12T18:11:26.515Z,4.93
2019-02-12T18:13:53.790Z,6.80
2019-02-12T18:16:20.986Z,11.60
2019-02-12T18:18:47.940Z,9.00
2019-02-12T18:21:15.164Z,5.27
2019-02-12T18:23:45.650Z,7.10
2019-02-12T18:26:15.270Z,11.20
2019-02-12T18:28:45.579Z,11.43
2019-02-12T18:31:13.536Z,9.60
2019-02-12T18:33:41.762Z,9.90
2019-02-12T18:36:11.175Z,9.23
2019-02-12T18:38:38.162Z,10.30
2019-02-12T18:41:04.901Z,9.70
2019-02-12T18:43:31.736Z,13.63
2019-02-12T18:45:58.617Z,5.13
2019-02-12T18:48:25.159Z,7.77
2019-02-12T18:50:51.778Z,9.13
2019-02-12T18:53:20.834Z,5.37
2019-02-12T18:55:47.715Z,6.90
2019-02-12T18:58:14.285Z,7.60
2019-02-12T19:00:46.072Z,6.40
2019-02-12T19:03:13.609Z,8.97
2019-02-12T19:09:39.871Z,10.90
2019-02-12T19:12:08.047Z,9.40
2019-02-12T19:14:44.920Z,6.63
2019-02-12T19:17:11.866Z,7.07
2019-02-12T19:19:39.539Z,7.83
2019-02-12T19:22:06.792Z,5.80
2019-02-12T19:24:33.398Z,5.63
2019-02-12T19:27:00.397Z,8.00
2019-02-12T19:29:32.174Z,11.03
2019-02-12T19:33:28.525Z,7.37
2019-02-12T19:35:59.013Z,10.40
2019-02-12T19:38:34.580Z,6.33
2019-02-12T19:41:02.429Z,7.80
2019-02-12T19:43:34.845Z,7.97
2019-02-12T19:46:08.030Z,5.83
2019-02-12T19:48:38.840Z,8.60
2019-02-12T19:51:05.470Z,14.50
2019-02-12T19:53:33.035Z,8.80
2019-02-12T19:56:07.750Z,7.40
2019-02-12T19:58:34.371Z,7.67
2019-02-12T20:01:01.262Z,7.57
2019-02-12T20:03:35.610Z,11.57
2019-02-12T20:06:06.270Z,9.00
2019-02-12T20:08:36.050Z,8.57
2019-02-12T20:11:04.854Z,5.97
2019-02-12T20:13:32.916Z,7.33
2019-02-12T20:15:59.446Z,7.57
2019-02-12T20:18:32.802Z,8.57
2019-02-12T20:21:11.746Z,9.27
2019-02-12T20:23:47.981Z,11.63
2019-02-12T20:26:20.091Z,11.07
2019-02-12T20:28:46.663Z,7.87
2019-02-12T20:31:44.308Z,9.97
2019-02-12T20:34:11.427Z,12.17
2019-02-12T20:36:39.268Z,13.17
2019-02-12T20:39:08.688Z,14.13
2019-02-12T20:41:35.367Z,8.47
2019-02-12T20:44:03.001Z,11.03
2019-02-12T20:46:30.889Z,13.40
2019-02-12T20:49:00.046Z,13.57
2019-02-12T20:51:32.759Z,15.37
2019-02-12T20:54:04.416Z,12.37
2019-02-12T20:56:31.108Z,17.90
2019-02-12T20:58:58.107Z,14.47
2019-02-12T21:01:24.936Z,13.27
2019-02-12T21:03:51.925Z,14.23
2019-02-12T21:06:19.437Z,15.73
2019-02-12T21:08:47.942Z,14.57
2019-02-12T21:11:14.711Z,16.70
2019-02-12T21:13:41.634Z,23.63
2019-02-12T21:16:09.203Z,16.40
2019-02-12T21:18:35.851Z,20.47
2019-02-12T21:21:02.487Z,14.43
2019-02-12T21:23:29.471Z,16.43
2019-02-12T21:25:56.101Z,15.70
2019-02-12T21:28:23.703Z,21.00
2019-02-12T21:30:50.445Z,14.50
2019-02-12T21:33:18.649Z,18.40
2019-02-12T21:35:45.805Z,20.23
2019-02-12T21:38:15.439Z,14.50
2019-02-12T21:40:42.343Z,22.23
2019-02-12T21:43:09.057Z,21.20
2019-02-12T21:45:35.637Z,17.17
2019-02-12T21:48:02.552Z,17.20
2019-02-12T21:50:29.658Z,15.73
2019-02-12T21:52:56.194Z,20.17
2019-02-12T21:55:23.086Z,16.83
2019-02-12T21:57:50.084Z,17.57
2019-02-12T22:00:16.751Z,17.10
2019-02-12T22:02:43.484Z,15.60
2019-02-12T22:05:10.501Z,19.87
2019-02-12T22:07:37.070Z,15.80
2019-02-12T22:10:05.217Z,18.17
2019-02-12T22:12:32.172Z,19.43
2019-02-12T22:14:58.727Z,18.50
2019-02-12T22:17:25.250Z,19.10
2019-02-12T22:19:52.167Z,12.03
2019-02-12T22:22:18.820Z,14.43
2019-02-12T22:24:45.376Z,14.83
2019-02-12T22:27:12.007Z,16.93
2019-02-12T22:29:38.968Z,15.23
2019-02-12T22:32:05.509Z,15.23
2019-02-12T22:34:32.020Z,19.70
2019-02-12T22:36:58.656Z,13.43
2019-02-12T22:39:25.468Z,12.50
2019-02-12T22:41:52.364Z,16.37
2019-02-12T22:44:19.343Z,20.90
2019-02-12T22:46:46.248Z,16.33
2019-02-12T22:49:13.208Z,14.53
2019-02-12T22:51:40.065Z,13.33
2019-02-12T22:54:07.162Z,21.33
2019-02-12T22:56:34.037Z,13.20
2019-02-12T22:59:00.988Z,16.13
2019-02-12T23:01:35.799Z,15.77
2019-02-12T23:04:03.573Z,18.40
2019-02-12T23:06:30.413Z,15.67
2019-02-12T23:08:57.351Z,16.77
2019-02-12T23:11:24.299Z,14.20
2019-02-12T23:13:51.142Z,22.47
2019-02-12T23:16:17.732Z,14.53
2019-02-12T23:18:46.300Z,14.87
2019-02-12T23:21:12.981Z,16.73
2019-02-12T23:23:39.764Z,16.47
2019-02-12T23:26:06.552Z,18.87
2019-02-12T23:28:33.048Z,13.83
2019-02-12T23:30:59.962Z,14.23
2019-02-12T23:33:26.498Z,14.23
2019-02-12T23:35:53.137Z,17.17
2019-02-12T23:38:19.786Z,14.43
2019-02-12T23:40:46.447Z,14.10
2019-02-12T23:43:13.155Z,12.33
2019-02-12T23:45:39.738Z,13.87
2019-02-12T23:48:06.375Z,14.80
2019-02-12T23:50:32.924Z,19.53
2019-02-12T23:52:59.663Z,13.87
2019-02-12T23:55:27.577Z,21.80
2019-02-12T23:57:54.621Z,15.77
